sensor_id;sensor_type;location;lat;lon;timestamp;temperature;humidity
37782;DHT22;23621;50.878;4.584;2023-04-03T00:02:03;10.40;61.70
37782;DHT22;23621;50.878;4.584;2023-04-03T00:04:30;10.40;61.90
37782;DHT22;23621;50.878;4.584;2023-04-03T00:06:57;10.30;61.90
37782;DHT22;23621;50.878;4.584;2023-04-03T00:09:24;10.30;61.90
37782;DHT22;23621;50.878;4.584;2023-04-03T00:11:51;10.30;61.90
37782;DHT22;23621;50.878;4.584;2023-04-03T00:14:19;10.20;61.80
37782;DHT22;23621;50.878;4.584;2023-04-03T00:16:46;10.30;62.00
37782;DHT22;23621;50.878;4.584;2023-04-03T00:19:13;10.20;61.90
37782;DHT22;23621;50.878;4.584;2023-04-03T00:21:40;10.20;62.00
37782;DHT22;23621;50.878;4.584;2023-04-03T00:24:07;10.10;61.90
37782;DHT22;23621;50.878;4.584;2023-04-03T00:26:34;10.20;62.00
37782;DHT22;23621;50.878;4.584;2023-04-03T00:29:01;10.20;62.00
37782;DHT22;23621;50.878;4.584;2023-04-03T00:31:28;10.10;61.90
37782;DHT22;23621;50.878;4.584;2023-04-03T00:33:55;10.20;62.80
37782;DHT22;23621;50.878;4.584;2023-04-03T00:36:22;10.10;61.80
37782;DHT22;23621;50.878;4.584;2023-04-03T00:38:52;10.10;61.80
37782;DHT22;23621;50.878;4.584;2023-04-03T00:41:19;10.10;61.80
37782;DHT22;23621;50.878;4.584;2023-04-03T00:43:46;10.10;61.90
37782;DHT22;23621;50.878;4.584;2023-04-03T00:46:13;10.10;61.80
37782;DHT22;23621;50.878;4.584;2023-04-03T00:48:43;10.10;61.80
37782;DHT22;23621;50.878;4.584;2023-04-03T00:51:14;10.10;61.80
37782;DHT22;23621;50.878;4.584;2023-04-03T00:53:49;10.00;61.80
37782;DHT22;23621;50.878;4.584;2023-04-03T00:56:19;10.10;61.80
37782;DHT22;23621;50.878;4.584;2023-04-03T00:58:57;10.00;61.80
37782;DHT22;23621;50.878;4.584;2023-04-03T01:01:28;10.10;62.00
37782;DHT22;23621;50.878;4.584;2023-04-03T01:03:55;10.00;61.90
37782;DHT22;23621;50.878;4.584;2023-04-03T01:06:29;10.10;62.00
37782;DHT22;23621;50.878;4.584;2023-04-03T01:09:00;10.10;62.10
37782;DHT22;23621;50.878;4.584;2023-04-03T01:11:27;10.00;62.00
37782;DHT22;23621;50.878;4.584;2023-04-03T01:13:54;10.00;61.90
37782;DHT22;23621;50.878;4.584;2023-04-03T01:16:21;10.00;61.90
37782;DHT22;23621;50.878;4.584;2023-04-03T01:18:49;10.00;61.90
37782;DHT22;23621;50.878;4.584;2023-04-03T01:21:53;10.00;62.00
37782;DHT22;23621;50.878;4.584;2023-04-03T01:27:03;9.90;63.00
37782;DHT22;23621;50.878;4.584;2023-04-03T01:29:30;9.90;63.00
37782;DHT22;23621;50.878;4.584;2023-04-03T01:31:59;9.90;63.00
37782;DHT22;23621;50.878;4.584;2023-04-03T01:34:28;10.00;62.10
37782;DHT22;23621;50.878;4.584;2023-04-03T01:36:55;10.00;62.10
37782;DHT22;23621;50.878;4.584;2023-04-03T01:39:22;10.00;62.00
37782;DHT22;23621;50.878;4.584;2023-04-03T01:41:49;10.00;62.10
37782;DHT22;23621;50.878;4.584;2023-04-03T01:44:16;10.00;62.10
37782;DHT22;23621;50.878;4.584;2023-04-03T01:46:43;9.90;63.10
37782;DHT22;23621;50.878;4.584;2023-04-03T01:49:10;9.90;63.10
37782;DHT22;23621;50.878;4.584;2023-04-03T01:51:37;9.90;63.00
37782;DHT22;23621;50.878;4.584;2023-04-03T01:54:05;9.90;63.10
37782;DHT22;23621;50.878;4.584;2023-04-03T01:56:31;9.90;63.00
37782;DHT22;23621;50.878;4.584;2023-04-03T01:58:58;9.90;62.90
37782;DHT22;23621;50.878;4.584;2023-04-03T02:01:25;9.80;62.80
37782;DHT22;23621;50.878;4.584;2023-04-03T02:03:53;9.80;62.80
37782;DHT22;23621;50.878;4.584;2023-04-03T02:06:22;9.70;62.60
37782;DHT22;23621;50.878;4.584;2023-04-03T02:08:49;9.70;62.80
37782;DHT22;23621;50.878;4.584;2023-04-03T02:11:16;9.70;62.70
37782;DHT22;23621;50.878;4.584;2023-04-03T02:13:43;9.60;62.70
37782;DHT22;23621;50.878;4.584;2023-04-03T02:16:11;9.60;62.70
37782;DHT22;23621;50.878;4.584;2023-04-03T02:18:39;9.60;62.80
37782;DHT22;23621;50.878;4.584;2023-04-03T02:21:06;9.70;62.90
37782;DHT22;23621;50.878;4.584;2023-04-03T02:23:33;9.60;62.80
37782;DHT22;23621;50.878;4.584;2023-04-03T02:26:07;9.60;62.80
37782;DHT22;23621;50.878;4.584;2023-04-03T02:28:35;9.60;62.70
37782;DHT22;23621;50.878;4.584;2023-04-03T02:31:03;9.60;62.80
37782;DHT22;23621;50.878;4.584;2023-04-03T02:33:30;9.60;62.90
37782;DHT22;23621;50.878;4.584;2023-04-03T02:35:58;9.60;62.90
37782;DHT22;23621;50.878;4.584;2023-04-03T02:38:25;9.60;62.90
37782;DHT22;23621;50.878;4.584;2023-04-03T02:40:52;9.60;62.90
37782;DHT22;23621;50.878;4.584;2023-04-03T02:43:19;9.60;62.90
37782;DHT22;23621;50.878;4.584;2023-04-03T02:45:49;9.60;62.90
37782;DHT22;23621;50.878;4.584;2023-04-03T02:48:18;9.60;62.90
37782;DHT22;23621;50.878;4.584;2023-04-03T02:50:45;9.60;62.90
37782;DHT22;23621;50.878;4.584;2023-04-03T02:53:12;9.60;62.90
37782;DHT22;23621;50.878;4.584;2023-04-03T02:55:39;9.60;62.80
37782;DHT22;23621;50.878;4.584;2023-04-03T02:58:06;9.60;62.80
37782;DHT22;23621;50.878;4.584;2023-04-03T03:00:35;9.50;62.60
37782;DHT22;23621;50.878;4.584;2023-04-03T03:03:03;9.50;62.70
37782;DHT22;23621;50.878;4.584;2023-04-03T03:05:30;9.50;62.80
37782;DHT22;23621;50.878;4.584;2023-04-03T03:07:57;9.50;62.70
37782;DHT22;23621;50.878;4.584;2023-04-03T03:10:24;9.40;62.60
37782;DHT22;23621;50.878;4.584;2023-04-03T03:12:51;9.40;62.70
37782;DHT22;23621;50.878;4.584;2023-04-03T03:15:19;9.40;62.60
37782;DHT22;23621;50.878;4.584;2023-04-03T03:17:46;9.40;62.70
37782;DHT22;23621;50.878;4.584;2023-04-03T03:20:13;9.30;62.60
37782;DHT22;23621;50.878;4.584;2023-04-03T03:22:43;9.30;62.70
37782;DHT22;23621;50.878;4.584;2023-04-03T03:25:10;9.30;62.70
37782;DHT22;23621;50.878;4.584;2023-04-03T03:27:37;9.30;62.70
37782;DHT22;23621;50.878;4.584;2023-04-03T03:30:05;9.20;62.50
37782;DHT22;23621;50.878;4.584;2023-04-03T03:32:32;9.20;62.60
37782;DHT22;23621;50.878;4.584;2023-04-03T03:34:59;9.20;62.60
37782;DHT22;23621;50.878;4.584;2023-04-03T03:37:27;9.10;62.60
37782;DHT22;23621;50.878;4.584;2023-04-03T03:39:54;9.10;62.60
37782;DHT22;23621;50.878;4.584;2023-04-03T03:42:21;9.00;63.00
37782;DHT22;23621;50.878;4.584;2023-04-03T03:44:49;9.00;62.60
37782;DHT22;23621;50.878;4.584;2023-04-03T03:47:16;9.00;62.60
37782;DHT22;23621;50.878;4.584;2023-04-03T03:49:46;9.00;62.60
37782;DHT22;23621;50.878;4.584;2023-04-03T03:52:13;9.00;62.70
37782;DHT22;23621;50.878;4.584;2023-04-03T03:54:40;9.00;62.70
37782;DHT22;23621;50.878;4.584;2023-04-03T03:57:10;9.00;62.70
37782;DHT22;23621;50.878;4.584;2023-04-03T03:59:40;8.90;62.60
37782;DHT22;23621;50.878;4.584;2023-04-03T04:02:07;9.00;62.70
37782;DHT22;23621;50.878;4.584;2023-04-03T04:04:41;8.90;62.40
37782;DHT22;23621;50.878;4.584;2023-04-03T04:07:08;8.90;62.30
37782;DHT22;23621;50.878;4.584;2023-04-03T04:09:35;8.90;62.30
37782;DHT22;23621;50.878;4.584;2023-04-03T04:12:02;8.90;62.30
37782;DHT22;23621;50.878;4.584;2023-04-03T04:14:29;8.90;62.30
37782;DHT22;23621;50.878;4.584;2023-04-03T04:16:56;8.80;62.30
37782;DHT22;23621;50.878;4.584;2023-04-03T04:19:23;8.80;62.30
37782;DHT22;23621;50.878;4.584;2023-04-03T04:21:51;8.80;62.30
37782;DHT22;23621;50.878;4.584;2023-04-03T04:24:18;8.80;62.20
37782;DHT22;23621;50.878;4.584;2023-04-03T04:26:45;8.80;62.20
37782;DHT22;23621;50.878;4.584;2023-04-03T04:29:12;8.70;62.20
37782;DHT22;23621;50.878;4.584;2023-04-03T04:31:39;8.70;62.30
37782;DHT22;23621;50.878;4.584;2023-04-03T04:34:09;8.70;62.30
37782;DHT22;23621;50.878;4.584;2023-04-03T04:36:36;8.70;62.30
37782;DHT22;23621;50.878;4.584;2023-04-03T04:42:20;8.70;62.20
37782;DHT22;23621;50.878;4.584;2023-04-03T04:44:47;8.60;62.10
37782;DHT22;23621;50.878;4.584;2023-04-03T04:47:15;8.60;62.20
37782;DHT22;23621;50.878;4.584;2023-04-03T04:49:51;8.60;62.20
37782;DHT22;23621;50.878;4.584;2023-04-03T04:52:18;8.60;62.20
37782;DHT22;23621;50.878;4.584;2023-04-03T04:54:45;8.60;62.20
37782;DHT22;23621;50.878;4.584;2023-04-03T04:57:12;8.60;62.30
37782;DHT22;23621;50.878;4.584;2023-04-03T04:59:40;8.60;62.20
37782;DHT22;23621;50.878;4.584;2023-04-03T05:02:07;8.50;62.40
37782;DHT22;23621;50.878;4.584;2023-04-03T05:04:34;8.50;62.40
37782;DHT22;23621;50.878;4.584;2023-04-03T05:07:01;8.50;62.40
37782;DHT22;23621;50.878;4.584;2023-04-03T05:09:28;8.50;62.40
37782;DHT22;23621;50.878;4.584;2023-04-03T05:11:56;8.50;62.40
37782;DHT22;23621;50.878;4.584;2023-04-03T05:14:23;8.50;62.40
37782;DHT22;23621;50.878;4.584;2023-04-03T05:16:50;8.50;62.40
37782;DHT22;23621;50.878;4.584;2023-04-03T05:19:20;8.50;62.40
37782;DHT22;23621;50.878;4.584;2023-04-03T05:21:48;8.50;62.30
37782;DHT22;23621;50.878;4.584;2023-04-03T05:24:15;8.50;62.30
37782;DHT22;23621;50.878;4.584;2023-04-03T05:26:43;8.50;62.30
37782;DHT22;23621;50.878;4.584;2023-04-03T05:29:11;8.50;62.30
37782;DHT22;23621;50.878;4.584;2023-04-03T05:31:38;8.50;62.30
37782;DHT22;23621;50.878;4.584;2023-04-03T05:34:05;8.40;62.20
37782;DHT22;23621;50.878;4.584;2023-04-03T05:36:32;8.40;62.20
37782;DHT22;23621;50.878;4.584;2023-04-03T05:38:59;8.40;62.20
37782;DHT22;23621;50.878;4.584;2023-04-03T05:41:27;8.40;62.20
37782;DHT22;23621;50.878;4.584;2023-04-03T05:43:54;8.40;62.10
37782;DHT22;23621;50.878;4.584;2023-04-03T05:46:21;8.40;62.20
37782;DHT22;23621;50.878;4.584;2023-04-03T05:48:49;8.40;62.30
37782;DHT22;23621;50.878;4.584;2023-04-03T05:51:23;8.40;62.30
37782;DHT22;23621;50.878;4.584;2023-04-03T05:53:54;8.40;62.50
37782;DHT22;23621;50.878;4.584;2023-04-03T05:56:25;8.50;62.50
37782;DHT22;23621;50.878;4.584;2023-04-03T05:58:55;8.50;62.60
37782;DHT22;23621;50.878;4.584;2023-04-03T06:01:23;8.50;62.80
37782;DHT22;23621;50.878;4.584;2023-04-03T06:03:50;8.50;62.80
37782;DHT22;23621;50.878;4.584;2023-04-03T06:06:17;8.50;62.80
37782;DHT22;23621;50.878;4.584;2023-04-03T06:08:44;8.50;62.90
37782;DHT22;23621;50.878;4.584;2023-04-03T06:11:12;8.60;63.10
37782;DHT22;23621;50.878;4.584;2023-04-03T06:13:40;8.60;63.10
37782;DHT22;23621;50.878;4.584;2023-04-03T06:16:08;8.60;63.10
37782;DHT22;23621;50.878;4.584;2023-04-03T06:18:38;8.60;63.20
37782;DHT22;23621;50.878;4.584;2023-04-03T06:21:05;8.60;63.10
37782;DHT22;23621;50.878;4.584;2023-04-03T06:23:35;8.70;63.30
37782;DHT22;23621;50.878;4.584;2023-04-03T06:26:05;8.70;63.40
37782;DHT22;23621;50.878;4.584;2023-04-03T06:28:32;8.70;63.50
37782;DHT22;23621;50.878;4.584;2023-04-03T06:30:59;8.80;63.60
37782;DHT22;23621;50.878;4.584;2023-04-03T06:33:27;8.80;63.70
37782;DHT22;23621;50.878;4.584;2023-04-03T06:36:03;8.80;63.80
37782;DHT22;23621;50.878;4.584;2023-04-03T06:38:31;8.90;63.90
37782;DHT22;23621;50.878;4.584;2023-04-03T06:40:58;9.00;64.00
37782;DHT22;23621;50.878;4.584;2023-04-03T06:43:28;9.00;64.00
37782;DHT22;23621;50.878;4.584;2023-04-03T06:46:00;9.10;64.10
37782;DHT22;23621;50.878;4.584;2023-04-03T06:48:27;9.20;64.10
37782;DHT22;23621;50.878;4.584;2023-04-03T06:50:55;9.20;64.20
37782;DHT22;23621;50.878;4.584;2023-04-03T06:53:22;9.30;64.40
37782;DHT22;23621;50.878;4.584;2023-04-03T06:55:50;9.30;64.40
37782;DHT22;23621;50.878;4.584;2023-04-03T06:58:17;9.30;64.40
37782;DHT22;23621;50.878;4.584;2023-04-03T07:00:47;9.30;64.50
37782;DHT22;23621;50.878;4.584;2023-04-03T07:03:14;9.40;64.60
37782;DHT22;23621;50.878;4.584;2023-04-03T07:05:43;9.40;64.70
37782;DHT22;23621;50.878;4.584;2023-04-03T07:08:11;9.40;64.80
37782;DHT22;23621;50.878;4.584;2023-04-03T07:10:56;9.50;64.90
37782;DHT22;23621;50.878;4.584;2023-04-03T07:13:24;9.50;65.60
37782;DHT22;23621;50.878;4.584;2023-04-03T07:15:51;9.60;64.90
37782;DHT22;23621;50.878;4.584;2023-04-03T07:18:18;9.60;65.00
37782;DHT22;23621;50.878;4.584;2023-04-03T07:20:45;9.60;65.10
37782;DHT22;23621;50.878;4.584;2023-04-03T07:23:12;9.60;65.00
37782;DHT22;23621;50.878;4.584;2023-04-03T07:25:44;9.60;65.00
37782;DHT22;23621;50.878;4.584;2023-04-03T07:28:12;9.70;65.10
37782;DHT22;23621;50.878;4.584;2023-04-03T07:33:11;9.80;65.20
37782;DHT22;23621;50.878;4.584;2023-04-03T07:35:39;9.80;65.20
37782;DHT22;23621;50.878;4.584;2023-04-03T07:38:07;9.80;65.20
37782;DHT22;23621;50.878;4.584;2023-04-03T07:40:34;9.90;65.30
37782;DHT22;23621;50.878;4.584;2023-04-03T07:43:01;9.90;65.10
37782;DHT22;23621;50.878;4.584;2023-04-03T07:45:29;10.00;64.10
37782;DHT22;23621;50.878;4.584;2023-04-03T07:47:56;10.00;64.10
37782;DHT22;23621;50.878;4.584;2023-04-03T07:50:23;10.10;64.00
37782;DHT22;23621;50.878;4.584;2023-04-03T07:52:50;10.10;64.00
37782;DHT22;23621;50.878;4.584;2023-04-03T07:55:19;10.20;63.90
37782;DHT22;23621;50.878;4.584;2023-04-03T07:57:46;10.30;63.90
37782;DHT22;23621;50.878;4.584;2023-04-03T08:00:13;10.30;63.80
37782;DHT22;23621;50.878;4.584;2023-04-03T08:02:40;10.30;63.70
37782;DHT22;23621;50.878;4.584;2023-04-03T08:05:08;10.40;63.80
37782;DHT22;23621;50.878;4.584;2023-04-03T08:07:37;10.40;63.80
37782;DHT22;23621;50.878;4.584;2023-04-03T08:10:04;10.50;63.80
37782;DHT22;23621;50.878;4.584;2023-04-03T08:12:31;10.50;63.70
37782;DHT22;23621;50.878;4.584;2023-04-03T08:15:00;10.60;63.80
37782;DHT22;23621;50.878;4.584;2023-04-03T08:17:27;10.70;63.70
37782;DHT22;23621;50.878;4.584;2023-04-03T08:19:54;10.70;63.50
37782;DHT22;23621;50.878;4.584;2023-04-03T08:22:22;10.80;63.60
37782;DHT22;23621;50.878;4.584;2023-04-03T08:24:49;10.80;63.50
37782;DHT22;23621;50.878;4.584;2023-04-03T08:27:25;10.90;63.40
37782;DHT22;23621;50.878;4.584;2023-04-03T08:29:54;10.90;63.40
37782;DHT22;23621;50.878;4.584;2023-04-03T08:32:22;11.00;63.40
37782;DHT22;23621;50.878;4.584;2023-04-03T08:34:50;11.00;63.40
37782;DHT22;23621;50.878;4.584;2023-04-03T08:37:17;11.00;63.10
37782;DHT22;23621;50.878;4.584;2023-04-03T08:39:44;11.10;63.10
37782;DHT22;23621;50.878;4.584;2023-04-03T08:42:22;11.10;63.00
37782;DHT22;23621;50.878;4.584;2023-04-03T08:44:59;11.20;63.10
37782;DHT22;23621;50.878;4.584;2023-04-03T08:47:41;11.20;62.80
37782;DHT22;23621;50.878;4.584;2023-04-03T08:50:16;11.30;62.60
37782;DHT22;23621;50.878;4.584;2023-04-03T08:52:47;11.30;62.60
37782;DHT22;23621;50.878;4.584;2023-04-03T08:58:26;11.40;62.40
37782;DHT22;23621;50.878;4.584;2023-04-03T09:01:03;11.40;61.80
37782;DHT22;23621;50.878;4.584;2023-04-03T09:03:34;11.50;61.90
37782;DHT22;23621;50.878;4.584;2023-04-03T09:11:26;11.60;61.00
37782;DHT22;23621;50.878;4.584;2023-04-03T09:16:56;11.80;60.90
37782;DHT22;23621;50.878;4.584;2023-04-03T09:24:34;12.00;60.10
37782;DHT22;23621;50.878;4.584;2023-04-03T09:27:04;12.00;59.90
37782;DHT22;23621;50.878;4.584;2023-04-03T09:29:36;12.10;59.80
37782;DHT22;23621;50.878;4.584;2023-04-03T09:32:19;12.20;59.80
37782;DHT22;23621;50.878;4.584;2023-04-03T09:34:48;12.20;58.90
37782;DHT22;23621;50.878;4.584;2023-04-03T09:37:47;12.20;59.10
37782;DHT22;23621;50.878;4.584;2023-04-03T09:40:31;12.30;58.80
37782;DHT22;23621;50.878;4.584;2023-04-03T09:43:20;12.40;58.40
37782;DHT22;23621;50.878;4.584;2023-04-03T09:45:48;12.40;58.50
37782;DHT22;23621;50.878;4.584;2023-04-03T09:48:25;12.40;58.40
37782;DHT22;23621;50.878;4.584;2023-04-03T09:50:58;12.50;58.30
37782;DHT22;23621;50.878;4.584;2023-04-03T09:58:45;12.60;58.00
37782;DHT22;23621;50.878;4.584;2023-04-03T10:01:37;12.70;58.10
37782;DHT22;23621;50.878;4.584;2023-04-03T10:04:11;12.80;58.00
37782;DHT22;23621;50.878;4.584;2023-04-03T10:06:48;12.90;58.00
37782;DHT22;23621;50.878;4.584;2023-04-03T10:12:11;12.90;58.70
37782;DHT22;23621;50.878;4.584;2023-04-03T10:22:56;13.10;56.90
37782;DHT22;23621;50.878;4.584;2023-04-03T10:28:00;13.10;56.70
37782;DHT22;23621;50.878;4.584;2023-04-03T10:39:54;13.30;55.90
37782;DHT22;23621;50.878;4.584;2023-04-03T10:42:48;13.20;54.80
37782;DHT22;23621;50.878;4.584;2023-04-03T10:45:21;13.30;54.70
37782;DHT22;23621;50.878;4.584;2023-04-03T10:50:57;13.40;54.60
37782;DHT22;23621;50.878;4.584;2023-04-03T10:54:00;13.40;53.50
37782;DHT22;23621;50.878;4.584;2023-04-03T10:56:50;13.50;53.60
37782;DHT22;23621;50.878;4.584;2023-04-03T10:59:50;13.60;53.10
37782;DHT22;23621;50.878;4.584;2023-04-03T11:02:28;13.60;53.80
37782;DHT22;23621;50.878;4.584;2023-04-03T11:05:15;13.70;53.40
37782;DHT22;23621;50.878;4.584;2023-04-03T11:07:50;13.80;52.80
37782;DHT22;23621;50.878;4.584;2023-04-03T11:10:49;13.80;52.40
37782;DHT22;23621;50.878;4.584;2023-04-03T11:15:54;13.90;52.50
37782;DHT22;23621;50.878;4.584;2023-04-03T11:18:27;13.90;52.30
37782;DHT22;23621;50.878;4.584;2023-04-03T11:24:27;14.00;51.90
37782;DHT22;23621;50.878;4.584;2023-04-03T11:26:56;14.00;51.90
37782;DHT22;23621;50.878;4.584;2023-04-03T11:29:32;14.10;51.50
37782;DHT22;23621;50.878;4.584;2023-04-03T11:34:52;14.20;50.20
37782;DHT22;23621;50.878;4.584;2023-04-03T11:37:32;14.10;49.90
37782;DHT22;23621;50.878;4.584;2023-04-03T11:40:19;14.20;50.10
37782;DHT22;23621;50.878;4.584;2023-04-03T11:45:49;14.20;49.60
37782;DHT22;23621;50.878;4.584;2023-04-03T11:50:59;14.20;50.00
37782;DHT22;23621;50.878;4.584;2023-04-03T11:53:37;14.20;49.70
37782;DHT22;23621;50.878;4.584;2023-04-03T12:01:52;14.30;47.60
37782;DHT22;23621;50.878;4.584;2023-04-03T12:04:22;14.30;46.60
37782;DHT22;23621;50.878;4.584;2023-04-03T12:07:00;14.30;47.00
37782;DHT22;23621;50.878;4.584;2023-04-03T12:09:51;14.40;46.80
37782;DHT22;23621;50.878;4.584;2023-04-03T12:15:24;14.50;46.60
37782;DHT22;23621;50.878;4.584;2023-04-03T12:17:53;14.40;46.20
37782;DHT22;23621;50.878;4.584;2023-04-03T12:23:30;14.60;46.50
37782;DHT22;23621;50.878;4.584;2023-04-03T12:28:39;14.70;45.60
37782;DHT22;23621;50.878;4.584;2023-04-03T12:31:08;14.60;45.20
37782;DHT22;23621;50.878;4.584;2023-04-03T12:33:58;14.60;45.10
37782;DHT22;23621;50.878;4.584;2023-04-03T12:36:47;14.70;44.90
37782;DHT22;23621;50.878;4.584;2023-04-03T12:45:25;14.80;45.20
37782;DHT22;23621;50.878;4.584;2023-04-03T12:47:54;14.90;45.00
37782;DHT22;23621;50.878;4.584;2023-04-03T12:50:30;14.90;44.10
37782;DHT22;23621;50.878;4.584;2023-04-03T12:55:28;15.00;43.70
37782;DHT22;23621;50.878;4.584;2023-04-03T12:57:55;15.00;43.80
37782;DHT22;23621;50.878;4.584;2023-04-03T13:00:35;15.00;43.60
37782;DHT22;23621;50.878;4.584;2023-04-03T13:03:03;15.00;42.90
37782;DHT22;23621;50.878;4.584;2023-04-03T13:05:32;14.90;42.20
37782;DHT22;23621;50.878;4.584;2023-04-03T13:08:10;14.90;42.60
37782;DHT22;23621;50.878;4.584;2023-04-03T13:10:54;14.90;42.90
37782;DHT22;23621;50.878;4.584;2023-04-03T13:13:22;15.00;42.30
37782;DHT22;23621;50.878;4.584;2023-04-03T13:15:50;15.00;42.90
37782;DHT22;23621;50.878;4.584;2023-04-03T13:21:01;15.10;42.70
37782;DHT22;23621;50.878;4.584;2023-04-03T13:23:30;15.20;43.00
37782;DHT22;23621;50.878;4.584;2023-04-03T13:25:58;15.20;43.00
37782;DHT22;23621;50.878;4.584;2023-04-03T13:28:31;15.20;42.60
37782;DHT22;23621;50.878;4.584;2023-04-03T13:34:09;15.30;42.70
37782;DHT22;23621;50.878;4.584;2023-04-03T13:36:45;15.20;42.50
37782;DHT22;23621;50.878;4.584;2023-04-03T13:41:50;15.30;42.90
37782;DHT22;23621;50.878;4.584;2023-04-03T13:46:52;15.20;42.90
37782;DHT22;23621;50.878;4.584;2023-04-03T13:49:34;15.30;43.50
37782;DHT22;23621;50.878;4.584;2023-04-03T13:52:26;15.30;42.70
37782;DHT22;23621;50.878;4.584;2023-04-03T13:54:55;15.40;43.00
37782;DHT22;23621;50.878;4.584;2023-04-03T13:57:24;15.50;42.80
37782;DHT22;23621;50.878;4.584;2023-04-03T13:59:51;15.50;42.70
37782;DHT22;23621;50.878;4.584;2023-04-03T14:02:30;15.50;42.90
37782;DHT22;23621;50.878;4.584;2023-04-03T14:04:59;15.60;42.90
37782;DHT22;23621;50.878;4.584;2023-04-03T14:07:30;15.60;43.10
37782;DHT22;23621;50.878;4.584;2023-04-03T14:09:58;15.50;42.60
37782;DHT22;23621;50.878;4.584;2023-04-03T14:12:33;15.60;42.40
37782;DHT22;23621;50.878;4.584;2023-04-03T14:15:10;15.60;42.60
37782;DHT22;23621;50.878;4.584;2023-04-03T14:17:38;15.60;42.30
37782;DHT22;23621;50.878;4.584;2023-04-03T14:20:06;15.70;42.70
37782;DHT22;23621;50.878;4.584;2023-04-03T14:22:33;15.70;42.50
37782;DHT22;23621;50.878;4.584;2023-04-03T14:25:02;15.70;42.50
37782;DHT22;23621;50.878;4.584;2023-04-03T14:27:42;15.70;42.70
37782;DHT22;23621;50.878;4.584;2023-04-03T14:30:21;15.70;42.20
37782;DHT22;23621;50.878;4.584;2023-04-03T14:32:49;15.70;42.20
37782;DHT22;23621;50.878;4.584;2023-04-03T14:35:17;15.80;42.30
37782;DHT22;23621;50.878;4.584;2023-04-03T14:37:46;15.80;42.20
37782;DHT22;23621;50.878;4.584;2023-04-03T14:40:18;15.80;42.10
37782;DHT22;23621;50.878;4.584;2023-04-03T14:42:45;15.90;42.00
37782;DHT22;23621;50.878;4.584;2023-04-03T14:45:15;15.90;41.80
37782;DHT22;23621;50.878;4.584;2023-04-03T14:47:52;15.90;40.90
37782;DHT22;23621;50.878;4.584;2023-04-03T14:50:25;15.90;40.20
37782;DHT22;23621;50.878;4.584;2023-04-03T14:52:56;15.90;39.60
37782;DHT22;23621;50.878;4.584;2023-04-03T14:55:25;15.90;40.00
37782;DHT22;23621;50.878;4.584;2023-04-03T14:57:53;15.90;40.40
37782;DHT22;23621;50.878;4.584;2023-04-03T15:00:21;15.90;40.60
37782;DHT22;23621;50.878;4.584;2023-04-03T15:02:50;15.90;40.20
37782;DHT22;23621;50.878;4.584;2023-04-03T15:05:17;15.90;40.40
37782;DHT22;23621;50.878;4.584;2023-04-03T15:07:57;15.90;40.50
37782;DHT22;23621;50.878;4.584;2023-04-03T15:10:29;16.00;39.90
37782;DHT22;23621;50.878;4.584;2023-04-03T15:12:57;16.00;40.40
37782;DHT22;23621;50.878;4.584;2023-04-03T15:15:24;16.00;40.60
37782;DHT22;23621;50.878;4.584;2023-04-03T15:17:55;16.00;40.50
37782;DHT22;23621;50.878;4.584;2023-04-03T15:20:29;16.00;40.30
37782;DHT22;23621;50.878;4.584;2023-04-03T15:22:57;16.00;40.50
37782;DHT22;23621;50.878;4.584;2023-04-03T15:25:27;15.90;40.50
37782;DHT22;23621;50.878;4.584;2023-04-03T15:27:56;15.90;40.80
37782;DHT22;23621;50.878;4.584;2023-04-03T15:30:23;16.00;40.70
37782;DHT22;23621;50.878;4.584;2023-04-03T15:32:50;16.00;40.60
37782;DHT22;23621;50.878;4.584;2023-04-03T15:35:17;16.10;41.00
37782;DHT22;23621;50.878;4.584;2023-04-03T15:37:44;16.10;41.50
37782;DHT22;23621;50.878;4.584;2023-04-03T15:40:12;16.10;41.80
37782;DHT22;23621;50.878;4.584;2023-04-03T15:42:39;16.10;41.60
37782;DHT22;23621;50.878;4.584;2023-04-03T15:45:07;16.10;41.60
37782;DHT22;23621;50.878;4.584;2023-04-03T15:47:34;16.10;41.60
37782;DHT22;23621;50.878;4.584;2023-04-03T15:50:01;16.10;41.70
37782;DHT22;23621;50.878;4.584;2023-04-03T15:52:28;16.20;41.80
37782;DHT22;23621;50.878;4.584;2023-04-03T15:54:55;16.20;42.00
37782;DHT22;23621;50.878;4.584;2023-04-03T15:57:22;16.10;42.20
37782;DHT22;23621;50.878;4.584;2023-04-03T15:59:53;16.10;42.30
37782;DHT22;23621;50.878;4.584;2023-04-03T16:02:19;16.10;42.50
37782;DHT22;23621;50.878;4.584;2023-04-03T16:04:48;16.10;42.50
37782;DHT22;23621;50.878;4.584;2023-04-03T16:07:15;16.10;42.60
37782;DHT22;23621;50.878;4.584;2023-04-03T16:09:42;16.10;42.50
37782;DHT22;23621;50.878;4.584;2023-04-03T16:12:09;16.10;42.70
37782;DHT22;23621;50.878;4.584;2023-04-03T16:14:36;16.00;42.60
37782;DHT22;23621;50.878;4.584;2023-04-03T16:17:06;16.10;42.80
37782;DHT22;23621;50.878;4.584;2023-04-03T16:19:36;16.10;42.90
37782;DHT22;23621;50.878;4.584;2023-04-03T16:22:03;16.10;43.20
37782;DHT22;23621;50.878;4.584;2023-04-03T16:24:31;16.00;42.90
37782;DHT22;23621;50.878;4.584;2023-04-03T16:26:58;16.00;42.90
37782;DHT22;23621;50.878;4.584;2023-04-03T16:29:25;15.90;42.60
37782;DHT22;23621;50.878;4.584;2023-04-03T16:31:52;15.90;42.80
37782;DHT22;23621;50.878;4.584;2023-04-03T16:34:19;15.80;42.70
37782;DHT22;23621;50.878;4.584;2023-04-03T16:36:47;15.90;42.90
37782;DHT22;23621;50.878;4.584;2023-04-03T16:39:14;15.80;43.10
37782;DHT22;23621;50.878;4.584;2023-04-03T16:41:41;15.80;43.30
37782;DHT22;23621;50.878;4.584;2023-04-03T16:44:07;15.80;43.20
37782;DHT22;23621;50.878;4.584;2023-04-03T16:46:34;15.80;43.10
37782;DHT22;23621;50.878;4.584;2023-04-03T16:49:02;15.80;43.10
37782;DHT22;23621;50.878;4.584;2023-04-03T16:51:29;15.90;43.20
37782;DHT22;23621;50.878;4.584;2023-04-03T16:53:56;15.90;43.10
37782;DHT22;23621;50.878;4.584;2023-04-03T16:56:23;15.90;43.10
37782;DHT22;23621;50.878;4.584;2023-04-03T16:58:50;15.90;43.30
37782;DHT22;23621;50.878;4.584;2023-04-03T17:01:19;15.90;43.20
37782;DHT22;23621;50.878;4.584;2023-04-03T17:03:46;15.90;43.30
37782;DHT22;23621;50.878;4.584;2023-04-03T17:06:19;15.90;43.50
37782;DHT22;23621;50.878;4.584;2023-04-03T17:08:48;15.90;43.50
37782;DHT22;23621;50.878;4.584;2023-04-03T17:11:15;15.90;43.40
37782;DHT22;23621;50.878;4.584;2023-04-03T17:13:42;15.90;43.10
37782;DHT22;23621;50.878;4.584;2023-04-03T17:16:11;15.90;43.00
37782;DHT22;23621;50.878;4.584;2023-04-03T17:18:40;15.80;43.00
37782;DHT22;23621;50.878;4.584;2023-04-03T17:21:07;15.80;43.10
37782;DHT22;23621;50.878;4.584;2023-04-03T17:23:36;15.70;43.10
37782;DHT22;23621;50.878;4.584;2023-04-03T17:26:05;15.70;43.30
37782;DHT22;23621;50.878;4.584;2023-04-03T17:28:31;15.70;43.40
37782;DHT22;23621;50.878;4.584;2023-04-03T17:31:00;15.60;43.20
37782;DHT22;23621;50.878;4.584;2023-04-03T17:33:28;15.60;43.40
37782;DHT22;23621;50.878;4.584;2023-04-03T17:36:00;15.60;43.60
37782;DHT22;23621;50.878;4.584;2023-04-03T17:38:28;15.50;43.50
37782;DHT22;23621;50.878;4.584;2023-04-03T17:40:56;15.40;43.40